sensor_id;sensor_type;location;lat;lon;timestamp;pressure;altitude;pressure_sealevel;temperature;humidity
57374;BME280;43964;53.890;25.340;2023-04-01T00:01:11;1004.5;;;9.8;67.6
57374;BME280;43964;53.890;25.340;2023-04-01T00:06:00;1004.4;;;9.8;67.6
57374;BME280;43964;53.890;25.340;2023-04-01T00:11:43;1004.4;;;9.8;67.6
57374;BME280;43964;53.890;25.340;2023-04-01T00:16:00;1004.4;;;9.7;67.3
57374;BME280;43964;53.890;25.340;2023-04-01T00:21:00;1004.4;;;9.5;67.4
57374;BME280;43964;53.890;25.340;2023-04-01T00:26:22;1004.5;;;9.4;67.4
57374;BME280;43964;53.890;25.340;2023-04-01T00:31:09;1004.5;;;9.4;67.6
57374;BME280;43964;53.890;25.340;2023-04-01T00:36:42;1004.5;;;9.4;67.5
57374;BME280;43964;53.890;25.340;2023-04-01T00:41:19;1004.4;;;9.4;67.4
57374;BME280;43964;53.890;25.340;2023-04-01T00:46:10;1004.3;;;9.3;67.4
57374;BME280;43964;53.890;25.340;2023-04-01T00:51:32;1004.3;;;9.3;67.5
57374;BME280;43964;53.890;25.340;2023-04-01T00:56:01;1004.2;;;9.3;67.5
57374;BME280;43964;53.890;25.340;2023-04-01T01:01:38;1004.1;;;9.3;67.5
57374;BME280;43964;53.890;25.340;2023-04-01T01:06:24;1004.1;;;9.1;67.6
57374;BME280;43964;53.890;25.340;2023-04-01T01:11:00;1004.1;;;9.1;67.9
57374;BME280;43964;53.890;25.340;2023-04-01T01:16:36;1004.2;;;9.1;67.8
57374;BME280;43964;53.890;25.340;2023-04-01T01:21:36;1004.2;;;9.1;67.6
57374;BME280;43964;53.890;25.340;2023-04-01T01:26:50;1004.2;;;9.1;67.7
57374;BME280;43964;53.890;25.340;2023-04-01T01:31:11;1004.2;;;9;67.9
57374;BME280;43964;53.890;25.340;2023-04-01T01:36:01;1004.2;;;9.1;67.8
57374;BME280;43964;53.890;25.340;2023-04-01T01:41:18;1004.2;;;9.1;67.7
57374;BME280;43964;53.890;25.340;2023-04-01T01:46:11;1004.2;;;9.1;67.6
57374;BME280;43964;53.890;25.340;2023-04-01T01:51:40;1004.1;;;9;67.6
57374;BME280;43964;53.890;25.340;2023-04-01T01:56:14;1004.1;;;9;67.8
57374;BME280;43964;53.890;25.340;2023-04-01T02:01:17;1004.1;;;9;67.7
57374;BME280;43964;53.890;25.340;2023-04-01T02:06:42;1004.1;;;9.1;67.6
57374;BME280;43964;53.890;25.340;2023-04-01T02:11:12;1004.1;;;9.1;67.5
57374;BME280;43964;53.890;25.340;2023-04-01T02:16:26;1004.1;;;9.1;67.5
57374;BME280;43964;53.890;25.340;2023-04-01T02:21:26;1004.1;;;9.1;67.5
57374;BME280;43964;53.890;25.340;2023-04-01T02:26:18;1004;;;9.1;67.6
57374;BME280;43964;53.890;25.340;2023-04-01T02:31:40;1004;;;9.1;67.7
57374;BME280;43964;53.890;25.340;2023-04-01T02:36:11;1004;;;9.1;67.6
57374;BME280;43964;53.890;25.340;2023-04-01T02:41:24;1004;;;9.2;67.5
57374;BME280;43964;53.890;25.340;2023-04-01T02:46:00;1003.9;;;9.2;67.4
57374;BME280;43964;53.890;25.340;2023-04-01T02:51:25;1003.9;;;9.2;67.4
57374;BME280;43964;53.890;25.340;2023-04-01T02:56:40;1003.9;;;9.3;67.3
57374;BME280;43964;53.890;25.340;2023-04-01T03:01:00;1003.9;;;9.3;67.2
57374;BME280;43964;53.890;25.340;2023-04-01T03:06:24;1003.8;;;9.2;67.2
57374;BME280;43964;53.890;25.340;2023-04-01T03:11:24;1003.8;;;9.2;67.3
57374;BME280;43964;53.890;25.340;2023-04-01T03:16:24;1003.8;;;9.1;67.5
57374;BME280;43964;53.890;25.340;2023-04-01T03:21:40;1003.8;;;9.1;67.4
57374;BME280;43964;53.890;25.340;2023-04-01T03:26:00;1003.9;;;9;67.5
57374;BME280;43964;53.890;25.340;2023-04-01T03:31:24;1003.8;;;9;67.8
57374;BME280;43964;53.890;25.340;2023-04-01T03:36:32;1003.9;;;9;67.8
57374;BME280;43964;53.890;25.340;2023-04-01T03:41:24;1003.9;;;9.1;67.6
57374;BME280;43964;53.890;25.340;2023-04-01T03:46:40;1003.8;;;9;67.5
57374;BME280;43964;53.890;25.340;2023-04-01T03:51:00;1003.9;;;9;67.6
57374;BME280;43964;53.890;25.340;2023-04-01T03:56:24;1003.9;;;9;67.6
57374;BME280;43964;53.890;25.340;2023-04-01T04:01:24;1003.9;;;9.1;67.6
57374;BME280;43964;53.890;25.340;2023-04-01T04:06:25;1003.8;;;9;67.6
57374;BME280;43964;53.890;25.340;2023-04-01T04:11:34;1003.8;;;8.9;67.6
57374;BME280;43964;53.890;25.340;2023-04-01T04:16:16;1003.8;;;8.7;67.2
57374;BME280;43964;53.890;25.340;2023-04-01T04:21:24;1003.8;;;8.7;67.7
57374;BME280;43964;53.890;25.340;2023-04-01T04:26:15;1003.8;;;8.8;67.8
57374;BME280;43964;53.890;25.340;2023-04-01T04:31:24;1003.9;;;9;67.7
57374;BME280;43964;53.890;25.340;2023-04-01T04:36:40;1003.8;;;9.2;67.5
57374;BME280;43964;53.890;25.340;2023-04-01T04:46:24;1003.9;;;9.7;66.7
57374;BME280;43964;53.890;25.340;2023-04-01T04:56:24;1003.9;;;10;66.2
57374;BME280;43964;53.890;25.340;2023-04-01T05:01:40;1003.8;;;10.1;65.8
57374;BME280;43964;53.890;25.340;2023-04-01T05:06:11;1003.8;;;10.6;65.3
57374;BME280;43964;53.890;25.340;2023-04-01T05:11:24;1003.8;;;11.2;64.6
57374;BME280;43964;53.890;25.340;2023-04-01T05:16:24;1003.8;;;11.9;63.9
57374;BME280;43964;53.890;25.340;2023-04-01T05:21:24;1003.8;;;12;63.8
57374;BME280;43964;53.890;25.340;2023-04-01T05:26:26;1003.8;;;11.8;63.8
57374;BME280;43964;53.890;25.340;2023-04-01T05:31:01;1003.8;;;11.6;63.8
57374;BME280;43964;53.890;25.340;2023-04-01T05:36:41;1003.9;;;11.5;63.8
57374;BME280;43964;53.890;25.340;2023-04-01T05:51:19;1004;;;11.1;63.7
57374;BME280;43964;53.890;25.340;2023-04-01T05:56:01;1004;;;11;63.9
57374;BME280;43964;53.890;25.340;2023-04-01T06:01:12;1004;;;11;64.1
57374;BME280;43964;53.890;25.340;2023-04-01T06:06:31;1004;;;11.1;64.2
57374;BME280;43964;53.890;25.340;2023-04-01T06:11:46;1004;;;11.1;64.2
57374;BME280;43964;53.890;25.340;2023-04-01T06:16:21;1004;;;11.2;64.2
57374;BME280;43964;53.890;25.340;2023-04-01T06:21:16;1004;;;11.1;64.2
57374;BME280;43964;53.890;25.340;2023-04-01T06:26:12;1004;;;11;64.4
57374;BME280;43964;53.890;25.340;2023-04-01T06:31:33;1004.1;;;10.9;64.4
57374;BME280;43964;53.890;25.340;2023-04-01T06:36:40;1004.1;;;10.8;64.6
57374;BME280;43964;53.890;25.340;2023-04-01T06:41:28;1004.1;;;10.8;64.6
57374;BME280;43964;53.890;25.340;2023-04-01T06:46:12;1004.1;;;10.8;64.7
57374;BME280;43964;53.890;25.340;2023-04-01T06:51:19;1004.1;;;10.8;64.8
57374;BME280;43964;53.890;25.340;2023-04-01T06:56:30;1004.1;;;10.8;64.6
57374;BME280;43964;53.890;25.340;2023-04-01T07:01:41;1004.1;;;10.7;64.8
57374;BME280;43964;53.890;25.340;2023-04-01T07:06:01;1004.2;;;10.8;64.9
57374;BME280;43964;53.890;25.340;2023-04-01T07:11:09;1004.2;;;10.9;64.9
57374;BME280;43964;53.890;25.340;2023-04-01T07:16:11;1004.2;;;10.9;64.9
57374;BME280;43964;53.890;25.340;2023-04-01T07:21:14;1004.1;;;10.9;64.9
57374;BME280;43964;53.890;25.340;2023-04-01T07:26:40;1004.1;;;11;64.9
57374;BME280;43964;53.890;25.340;2023-04-01T07:31:13;1004.1;;;11.1;64.8
57374;BME280;43964;53.890;25.340;2023-04-01T07:36:12;1004.1;;;11.2;64.8
57374;BME280;43964;53.890;25.340;2023-04-01T07:41:21;1004.1;;;11.4;64.4
57374;BME280;43964;53.890;25.340;2023-04-01T07:46:35;1004.2;;;11.4;64.5
57374;BME280;43964;53.890;25.340;2023-04-01T07:51:42;1004.2;;;11.4;64.6
57374;BME280;43964;53.890;25.340;2023-04-01T07:56:19;1004.2;;;11.6;64.5
57374;BME280;43964;53.890;25.340;2023-04-01T08:01:12;1004.2;;;11.7;64.3
57374;BME280;43964;53.890;25.340;2023-04-01T08:06:03;1004.2;;;11.7;64.3
57374;BME280;43964;53.890;25.340;2023-04-01T08:11:34;1004.2;;;12;63.9
57374;BME280;43964;53.890;25.340;2023-04-01T08:16:41;1004.2;;;12.2;64
57374;BME280;43964;53.890;25.340;2023-04-01T08:21:20;1004.2;;;12.5;63.6
57374;BME280;43964;53.890;25.340;2023-04-01T08:26:20;1004.2;;;12.8;63.3
57374;BME280;43964;53.890;25.340;2023-04-01T08:31:25;1004.3;;;12.9;63.1
57374;BME280;43964;53.890;25.340;2023-04-01T08:36:29;1004.3;;;12.9;63.1
57374;BME280;43964;53.890;25.340;2023-04-01T08:41:41;1004.2;;;12.9;63
57374;BME280;43964;53.890;25.340;2023-04-01T08:46:00;1004.3;;;12.8;63.1
57374;BME280;43964;53.890;25.340;2023-04-01T08:51:10;1004.3;;;12.7;63.2
57374;BME280;43964;53.890;25.340;2023-04-01T08:56:06;1004.3;;;12.6;63.3
57374;BME280;43964;53.890;25.340;2023-04-01T09:01:36;1004.4;;;12.5;63.5
57374;BME280;43964;53.890;25.340;2023-04-01T09:06:40;1004.3;;;12.4;63.6
57374;BME280;43964;53.890;25.340;2023-04-01T09:11:23;1004.3;;;12.4;63.8
57374;BME280;43964;53.890;25.340;2023-04-01T09:16:13;1004.3;;;12.6;63.7
57374;BME280;43964;53.890;25.340;2023-04-01T09:21:22;1004.3;;;12.7;63.5
57374;BME280;43964;53.890;25.340;2023-04-01T09:26:37;1004.4;;;12.9;63.3
57374;BME280;43964;53.890;25.340;2023-04-01T09:31:46;1004.4;;;13.2;63
57374;BME280;43964;53.890;25.340;2023-04-01T09:36:21;1004.4;;;13.2;63
57374;BME280;43964;53.890;25.340;2023-04-01T09:41:20;1004.4;;;13.1;63.1
57374;BME280;43964;53.890;25.340;2023-04-01T09:46:20;1004.5;;;13.1;63.1
57374;BME280;43964;53.890;25.340;2023-04-01T09:51:32;1004.5;;;13;63.1
57374;BME280;43964;53.890;25.340;2023-04-01T10:01:42;1004.6;;;12.8;63.5
57374;BME280;43964;53.890;25.340;2023-04-01T10:06:06;1004.6;;;12.7;63.6
57374;BME280;43964;53.890;25.340;2023-04-01T10:11:23;1004.6;;;12.6;63.7
57374;BME280;43964;53.890;25.340;2023-04-01T10:16:34;1004.6;;;12.6;64
57374;BME280;43964;53.890;25.340;2023-04-01T10:21:50;1004.6;;;12.7;64
57374;BME280;43964;53.890;25.340;2023-04-01T10:31:23;1004.6;;;13.1;63.8
57374;BME280;43964;53.890;25.340;2023-04-01T10:36:34;1004.6;;;13.2;63.7
57374;BME280;43964;53.890;25.340;2023-04-01T10:42:05;1004.5;;;13.2;63.9
57374;BME280;43964;53.890;25.340;2023-04-01T10:47:19;1004.6;;;13.1;64
57374;BME280;43964;53.890;25.340;2023-04-01T10:51:42;1004.6;;;13.2;63.9
57374;BME280;43964;53.890;25.340;2023-04-01T10:56:42;1004.6;;;13.1;64.1
57374;BME280;43964;53.890;25.340;2023-04-01T11:01:17;1004.6;;;13;64
57374;BME280;43964;53.890;25.340;2023-04-01T11:11:47;1004.7;;;12.8;64.4
57374;BME280;43964;53.890;25.340;2023-04-01T11:16:35;1004.6;;;12.6;64.4
57374;BME280;43964;53.890;25.340;2023-04-01T11:21:30;1004.6;;;12.5;64.8
57374;BME280;43964;53.890;25.340;2023-04-01T11:26:20;1004.6;;;12.5;65.2
57374;BME280;43964;53.890;25.340;2023-04-01T11:36:40;1004.7;;;12.7;65.5
57374;BME280;43964;53.890;25.340;2023-04-01T11:41:33;1004.7;;;12.7;65.6
57374;BME280;43964;53.890;25.340;2023-04-01T11:46:10;1004.7;;;12.8;65.6
57374;BME280;43964;53.890;25.340;2023-04-01T11:51:05;1004.7;;;12.7;65.4
57374;BME280;43964;53.890;25.340;2023-04-01T11:56:38;1004.7;;;12.7;66
57374;BME280;43964;53.890;25.340;2023-04-01T12:01:44;1004.7;;;12.8;65.9
57374;BME280;43964;53.890;25.340;2023-04-01T12:06:16;1004.7;;;13;65.8
57374;BME280;43964;53.890;25.340;2023-04-01T12:11:17;1004.7;;;13.1;65.6
57374;BME280;43964;53.890;25.340;2023-04-01T12:16:21;1004.7;;;13.1;65.6
57374;BME280;43964;53.890;25.340;2023-04-01T12:21:32;1004.8;;;13.2;65.7
57374;BME280;43964;53.890;25.340;2023-04-01T12:26:43;1004.8;;;13.2;65.7
57374;BME280;43964;53.890;25.340;2023-04-01T12:31:34;1004.8;;;13.1;65.7
57374;BME280;43964;53.890;25.340;2023-04-01T12:36:18;1004.8;;;13.1;65.8
57374;BME280;43964;53.890;25.340;2023-04-01T12:41:18;1004.8;;;13.1;65.9
57374;BME280;43964;53.890;25.340;2023-04-01T12:46:30;1004.8;;;13;66.1
57374;BME280;43964;53.890;25.340;2023-04-01T12:51:48;1004.8;;;13;66.2
57374;BME280;43964;53.890;25.340;2023-04-01T12:56:32;1004.8;;;13;66.4
57374;BME280;43964;53.890;25.340;2023-04-01T13:01:03;1004.8;;;13;66.4
57374;BME280;43964;53.890;25.340;2023-04-01T13:06:28;1004.8;;;13.1;66.4
57374;BME280;43964;53.890;25.340;2023-04-01T13:11:24;1004.8;;;13.2;66.3
57374;BME280;43964;53.890;25.340;2023-04-01T13:16:41;1004.8;;;13.3;66.2
57374;BME280;43964;53.890;25.340;2023-04-01T13:21:33;1004.8;;;13.5;66
57374;BME280;43964;53.890;25.340;2023-04-01T13:26:12;1004.8;;;13.5;65.8
57374;BME280;43964;53.890;25.340;2023-04-01T13:31:24;1004.8;;;13.4;65.9
57374;BME280;43964;53.890;25.340;2023-04-01T13:36:33;1004.8;;;13.4;65.9
57374;BME280;43964;53.890;25.340;2023-04-01T13:41:45;1004.8;;;13.5;65.8
57374;BME280;43964;53.890;25.340;2023-04-01T13:46:36;1004.8;;;13.6;65.7
57374;BME280;43964;53.890;25.340;2023-04-01T13:52:00;1004.9;;;13.7;65.7
57374;BME280;43964;53.890;25.340;2023-04-01T13:56:03;1004.9;;;13.8;65.6
57374;BME280;43964;53.890;25.340;2023-04-01T14:01:35;1005;;;13.6;65.6
57374;BME280;43964;53.890;25.340;2023-04-01T14:06:48;1005;;;13.4;65.7
57374;BME280;43964;53.890;25.340;2023-04-01T14:11:31;1005;;;13.3;66
57374;BME280;43964;53.890;25.340;2023-04-01T14:16:23;1005.1;;;13.1;66.3
57374;BME280;43964;53.890;25.340;2023-04-01T14:21:06;1005.1;;;12.9;66.5
57374;BME280;43964;53.890;25.340;2023-04-01T14:26:23;1005.1;;;12.7;66.7
57374;BME280;43964;53.890;25.340;2023-04-01T14:31:43;1005.1;;;12.5;66.8
57374;BME280;43964;53.890;25.340;2023-04-01T14:36:49;1005.1;;;12.4;66.9
57374;BME280;43964;53.890;25.340;2023-04-01T14:41:29;1005.1;;;12.4;67
57374;BME280;43964;53.890;25.340;2023-04-01T14:46:37;1005.1;;;12.5;67.1
57374;BME280;43964;53.890;25.340;2023-04-01T14:51:20;1005.1;;;12.5;67.3
57374;BME280;43964;53.890;25.340;2023-04-01T14:56:41;1005.2;;;12.6;67.3
57374;BME280;43964;53.890;25.340;2023-04-01T15:01:45;1005.2;;;12.7;67.4
57374;BME280;43964;53.890;25.340;2023-04-01T15:06:10;1005.2;;;12.8;67.5
57374;BME280;43964;53.890;25.340;2023-04-01T15:11:29;1005.3;;;12.9;67.4
57374;BME280;43964;53.890;25.340;2023-04-01T15:16:20;1005.3;;;12.9;67.3
57374;BME280;43964;53.890;25.340;2023-04-01T15:21:04;1005.3;;;12.8;67.3
57374;BME280;43964;53.890;25.340;2023-04-01T15:26:52;1005.4;;;12.7;67.2
57374;BME280;43964;53.890;25.340;2023-04-01T15:31:01;1005.4;;;12.6;67.5
57374;BME280;43964;53.890;25.340;2023-04-01T15:36:24;1005.4;;;12.5;67.9
57374;BME280;43964;53.890;25.340;2023-04-01T15:41:15;1005.4;;;12.4;68.1
57374;BME280;43964;53.890;25.340;2023-04-01T15:46:36;1005.5;;;12.3;68.3
57374;BME280;43964;53.890;25.340;2023-04-01T15:51:43;1005.5;;;12.2;68.5
57374;BME280;43964;53.890;25.340;2023-04-01T15:56:24;1005.6;;;12.1;68.7
57374;BME280;43964;53.890;25.340;2023-04-01T16:01:43;1005.7;;;12;68.6
57374;BME280;43964;53.890;25.340;2023-04-01T16:07:27;1005.7;;;11.9;68.6
57374;BME280;43964;53.890;25.340;2023-04-01T16:11:30;1005.7;;;11.6;68.7
57374;BME280;43964;53.890;25.340;2023-04-01T16:16:47;1005.8;;;11.5;69.2
57374;BME280;43964;53.890;25.340;2023-04-01T16:21:10;1005.8;;;11.5;69.8
57374;BME280;43964;53.890;25.340;2023-04-01T16:26:26;1005.8;;;11.5;69.9
57374;BME280;43964;53.890;25.340;2023-04-01T16:31:03;1005.9;;;11.5;70
57374;BME280;43964;53.890;25.340;2023-04-01T16:36:33;1005.9;;;11.5;70
57374;BME280;43964;53.890;25.340;2023-04-01T16:41:47;1006;;;11.6;70
57374;BME280;43964;53.890;25.340;2023-04-01T16:46:27;1006;;;11.5;70.1
57374;BME280;43964;53.890;25.340;2023-04-01T16:51:11;1006;;;11.5;70.2
57374;BME280;43964;53.890;25.340;2023-04-01T16:56:08;1006;;;11.3;70.2
57374;BME280;43964;53.890;25.340;2023-04-01T17:01:43;1006.1;;;11.2;70.7
57374;BME280;43964;53.890;25.340;2023-04-01T17:06:43;1006;;;11.1;71
57374;BME280;43964;53.890;25.340;2023-04-01T17:11:12;1006.1;;;11;71.5
57374;BME280;43964;53.890;25.340;2023-04-01T17:16:28;1006.1;;;11.1;71.7
57374;BME280;43964;53.890;25.340;2023-04-01T17:21:02;1006.2;;;11.1;71.9
57374;BME280;43964;53.890;25.340;2023-04-01T17:26:28;1006.2;;;11.1;71.3
57374;BME280;43964;53.890;25.340;2023-04-01T17:31:45;1006.3;;;11;71.5
57374;BME280;43964;53.890;25.340;2023-04-01T17:36:11;1006.3;;;10.9;72
57374;BME280;43964;53.890;25.340;2023-04-01T17:41:19;1006.3;;;10.9;72.1
57374;BME280;43964;53.890;25.340;2023-04-01T17:46:37;1006.4;;;10.9;72.6
57374;BME280;43964;53.890;25.340;2023-04-01T17:51:17;1006.4;;;11;72.4
57374;BME280;43964;53.890;25.340;2023-04-01T17:56:45;1006.5;;;11;72.6
57374;BME280;43964;53.890;25.340;2023-04-01T18:01:37;1006.6;;;11.1;72.7
57374;BME280;43964;53.890;25.340;2023-04-01T18:06:09;1006.6;;;11.2;72.7
57374;BME280;43964;53.890;25.340;2023-04-01T18:11:00;1006.7;;;11.3;72.3
57374;BME280;43964;53.890;25.340;2023-04-01T18:16:16;1006.8;;;11.3;72.5
57374;BME280;43964;53.890;25.340;2023-04-01T18:21:43;1006.8;;;11.3;72.5
57374;BME280;43964;53.890;25.340;2023-04-01T18:26:31;1006.8;;;11.2;72.2
57374;BME280;43964;53.890;25.340;2023-04-01T18:31:17;1006.8;;;11.1;72.5
57374;BME280;43964;53.890;25.340;2023-04-01T18:36:10;1006.8;;;11.1;72.8
57374;BME280;43964;53.890;25.340;2023-04-01T18:41:32;1006.9;;;11.2;72.8
57374;BME280;43964;53.890;25.340;2023-04-01T18:46:46;1006.9;;;11.3;72.5
57374;BME280;43964;53.890;25.340;2023-04-01T18:51:34;1006.9;;;11.2;72.5
57374;BME280;43964;53.890;25.340;2023-04-01T18:56:22;1007;;;11.2;72.4
57374;BME280;43964;53.890;25.340;2023-04-01T19:01:04;1007.1;;;11.1;72.3
57374;BME280;43964;53.890;25.340;2023-04-01T19:06:30;1007.2;;;11;72.5
57374;BME280;43964;53.890;25.340;2023-04-01T19:11:42;1007.2;;;10.9;72.4
57374;BME280;43964;53.890;25.340;2023-04-01T19:16:17;1007.2;;;10.8;72.4
57374;BME280;43964;53.890;25.340;2023-04-01T19:21:26;1007.3;;;10.6;72.1
57374;BME280;43964;53.890;25.340;2023-04-01T19:26:10;1007.3;;;10.4;72
57374;BME280;43964;53.890;25.340;2023-04-01T19:31:19;1007.3;;;10.3;72
57374;BME280;43964;53.890;25.340;2023-04-01T19:36:44;1007.4;;;10;72
57374;BME280;43964;53.890;25.340;2023-04-01T19:41:33;1007.4;;;9.9;72.1
57374;BME280;43964;53.890;25.340;2023-04-01T19:46:18;1007.5;;;9.8;72.1
57374;BME280;43964;53.890;25.340;2023-04-01T19:51:09;1007.6;;;9.6;72
57374;BME280;43964;53.890;25.340;2023-04-01T19:56:32;1007.7;;;9.4;71.9
57374;BME280;43964;53.890;25.340;2023-04-01T20:01:41;1007.7;;;9.2;72
57374;BME280;43964;53.890;25.340;2023-04-01T20:06:22;1007.8;;;9.2;72.2
57374;BME280;43964;53.890;25.340;2023-04-01T20:11:13;1007.8;;;9;72.3
57374;BME280;43964;53.890;25.340;2023-04-01T20:15:59;1007.9;;;8.9;72.4
57374;BME280;43964;53.890;25.340;2023-04-01T20:21:33;1008;;;8.8;72.5
57374;BME280;43964;53.890;25.340;2023-04-01T20:26:39;1008;;;8.7;72.6
57374;BME280;43964;53.890;25.340;2023-04-01T20:31:30;1008.1;;;8.5;72.4
57374;BME280;43964;53.890;25.340;2023-04-01T20:36:10;1008.1;;;8.4;72.8
57374;BME280;43964;53.890;25.340;2023-04-01T20:40:59;1008.1;;;8.3;72.9
57374;BME280;43964;53.890;25.340;2023-04-01T20:46:11;1008.1;;;8.3;72.9
57374;BME280;43964;53.890;25.340;2023-04-01T20:51:43;1008.2;;;8.2;72.9
57374;BME280;43964;53.890;25.340;2023-04-01T20:56:44;1008.3;;;8.1;72.9
57374;BME280;43964;53.890;25.340;2023-04-01T21:01:12;1008.3;;;8.1;72.7
57374;BME280;43964;53.890;25.340;2023-04-01T21:06:38;1008.4;;;8;72.7
57374;BME280;43964;53.890;25.340;2023-04-01T21:11:33;1008.5;;;8;72.7
57374;BME280;43964;53.890;25.340;2023-04-01T21:16:41;1008.5;;;8;72.7
57374;BME280;43964;53.890;25.340;2023-04-01T21:21:38;1008.5;;;7.9;72.7
57374;BME280;43964;53.890;25.340;2023-04-01T21:26:02;1008.5;;;7.9;72.7
57374;BME280;43964;53.890;25.340;2023-04-01T21:31:02;1008.6;;;7.9;72.7
57374;BME280;43964;53.890;25.340;2023-04-01T21:36:33;1008.7;;;7.9;72.6
57374;BME280;43964;53.890;25.340;2023-04-01T21:41:46;1008.8;;;7.8;72.6
57374;BME280;43964;53.890;25.340;2023-04-01T21:46:36;1008.8;;;7.9;72.6
57374;BME280;43964;53.890;25.340;2023-04-01T21:51:24;1008.9;;;7.9;72.5
57374;BME280;43964;53.890;25.340;2023-04-01T21:56:12;1008.9;;;7.9;72.4
57374;BME280;43964;53.890;25.340;2023-04-01T22:01:01;1009;;;7.9;72.3
57374;BME280;43964;53.890;25.340;2023-04-01T22:06:39;1009;;;7.9;72.3
57374;BME280;43964;53.890;25.340;2023-04-01T22:11:31;1009;;;7.8;72.3
57374;BME280;43964;53.890;25.340;2023-04-01T22:16:19;1009;;;7.8;72.3
57374;BME280;43964;53.890;25.340;2023-04-01T22:20:59;1009.1;;;7.8;72.3
57374;BME280;43964;53.890;25.340;2023-04-01T22:26:31;1009.2;;;7.8;72.3
57374;BME280;43964;53.890;25.340;2023-04-01T22:31:40;1009.2;;;7.8;72.3
57374;BME280;43964;53.890;25.340;2023-04-01T22:36:20;1009.3;;;7.8;72.2
57374;BME280;43964;53.890;25.340;2023-04-01T22:41:47;1009.3;;;7.8;72.2
57374;BME280;43964;53.890;25.340;2023-04-01T22:46:26;1009.3;;;7.7;72.1
57374;BME280;43964;53.890;25.340;2023-04-01T22:51:40;1009.4;;;7.6;72.1
57374;BME280;43964;53.890;25.340;2023-04-01T22:56:34;1009.4;;;7.5;72
57374;BME280;43964;53.890;25.340;2023-04-01T23:01:05;1009.5;;;7.5;72.3
57374;BME280;43964;53.890;25.340;2023-04-01T23:06:39;1009.5;;;7.5;72.2
57374;BME280;43964;53.890;25.340;2023-04-01T23:10:59;1009.5;;;7.5;72.1
57374;BME280;43964;53.890;25.340;2023-04-01T23:16:40;1009.6;;;7.6;72.2
57374;BME280;43964;53.890;25.340;2023-04-01T23:21:32;1009.7;;;7.8;72.1
57374;BME280;43964;53.890;25.340;2023-04-01T23:26:14;1009.7;;;7.8;71.7
57374;BME280;43964;53.890;25.340;2023-04-01T23:31:37;1009.7;;;7.8;71.9
57374;BME280;43964;53.890;25.340;2023-04-01T23:36:10;1009.8;;;7.9;71.8
57374;BME280;43964;53.890;25.340;2023-04-01T23:41:39;1009.8;;;7.9;71.6
57374;BME280;43964;53.890;25.340;2023-04-01T23:46:31;1009.9;;;8;71.5
57374;BME280;43964;53.890;25.340;2023-04-01T23:51:13;1009.9;;;8;71.2
57374;BME280;43964;53.890;25.340;2023-04-01T23:56:38;1010;;;7.9;71.1
